Hovedside
METAR-TAF:

METAR-TAF

Lufthavner :

Gao, Mali

breddegrad: 16-16N, lengdegrad: 000-03W, høyde over havet: 265 m

Gjeldene værobservasjon

Denne rapporten ble laget for 2 timer og 23 minutter siden, klokken 12:00 UTC
Vind 9 kt fra Vest
Temperatur 38°C
Luftfuktighet 40%
Trykk 1010 hPa
Sikt: 6000 m

METAR: GAGO 181200Z 26009KT 6000 NSC 38/22 Q1010 NOSIG

Tid: 14:23 (14:23 UTC)

Varsel

Denne rapporten ble laget for 3 timer og 3 minutter siden, klokken 11:20 UTC
Varsel gyldig fra 18. klokken 12 UTC til 19. klokken 12 UTC
Vind 12 kt fra Vest-sørvest
Sikt: 7000 m
Sannsynlighet 40% :
Midlertidig
fra 18. klokken 16 UTC til 18. klokken 21 UTC
Spredte skyer i en høyde av 3500 ft
Få skyer i en høyde av 4000 ft, Bygeskyer.
torden,

TAF: GAGO 181120Z 1812/1912 25012KT 7000 NSC PROB40 TEMPO 1816/1821 TS SCT035 FEW040CB

Værobservasjoner og værvarsel for over 4000 flyplasser (METAR- og TAF-rapporter).

Tilgjengelige stasjoner er representert av de røde og gule prikkene på kartet.

Hold musepekeren over prikken for å se navnet på stasjonen.

Klikk så for å se værobservasjoner og -varsler.

For å forandre kartet kan du klikke på den grønne knappen med svart kryss for å zoome inn, på den grønne knappen med strek for å zoome ut, eller på de grønne pilene for å se tilstøtende kart.


METAR-TAF: